sensor_id;sensor_type;location;lat;lon;timestamp;P1;durP1;ratioP1;P2;durP2;ratioP2
15102;SDS011;7652;53.584;9.998;2022-12-05T00:00:03;18.57;;;10.33;;
15102;SDS011;7652;53.584;9.998;2022-12-05T00:03:10;17.20;;;9.87;;
15102;SDS011;7652;53.584;9.998;2022-12-05T00:06:13;14.97;;;9.23;;
15102;SDS011;7652;53.584;9.998;2022-12-05T00:09:16;17.03;;;9.67;;
15102;SDS011;7652;53.584;9.998;2022-12-05T00:12:19;16.47;;;10.13;;
15102;SDS011;7652;53.584;9.998;2022-12-05T00:15:22;14.97;;;9.20;;
15102;SDS011;7652;53.584;9.998;2022-12-05T00:18:27;13.73;;;8.60;;
15102;SDS011;7652;53.584;9.998;2022-12-05T00:21:30;16.80;;;10.50;;
15102;SDS011;7652;53.584;9.998;2022-12-05T00:24:34;18.57;;;9.73;;
15102;SDS011;7652;53.584;9.998;2022-12-05T00:27:37;15.97;;;9.43;;
15102;SDS011;7652;53.584;9.998;2022-12-05T00:30:40;13.63;;;8.33;;
15102;SDS011;7652;53.584;9.998;2022-12-05T00:33:45;16.17;;;9.77;;
15102;SDS011;7652;53.584;9.998;2022-12-05T00:36:48;13.97;;;8.70;;
15102;SDS011;7652;53.584;9.998;2022-12-05T00:39:51;14.97;;;9.00;;
15102;SDS011;7652;53.584;9.998;2022-12-05T00:42:54;13.70;;;8.17;;
15102;SDS011;7652;53.584;9.998;2022-12-05T00:45:59;13.43;;;8.20;;
15102;SDS011;7652;53.584;9.998;2022-12-05T00:49:05;13.40;;;8.70;;
15102;SDS011;7652;53.584;9.998;2022-12-05T00:52:08;14.73;;;8.50;;
15102;SDS011;7652;53.584;9.998;2022-12-05T00:55:11;12.60;;;8.83;;
15102;SDS011;7652;53.584;9.998;2022-12-05T00:58:14;16.67;;;8.30;;
15102;SDS011;7652;53.584;9.998;2022-12-05T01:01:19;12.67;;;8.47;;
15102;SDS011;7652;53.584;9.998;2022-12-05T01:04:25;14.63;;;8.77;;
15102;SDS011;7652;53.584;9.998;2022-12-05T01:07:28;13.33;;;8.53;;
15102;SDS011;7652;53.584;9.998;2022-12-05T01:10:31;14.20;;;8.83;;
15102;SDS011;7652;53.584;9.998;2022-12-05T01:13:34;12.27;;;7.87;;
15102;SDS011;7652;53.584;9.998;2022-12-05T01:16:38;15.83;;;8.70;;
15102;SDS011;7652;53.584;9.998;2022-12-05T01:19:43;14.87;;;8.20;;
15102;SDS011;7652;53.584;9.998;2022-12-05T01:22:46;12.97;;;8.40;;
15102;SDS011;7652;53.584;9.998;2022-12-05T01:25:50;11.07;;;7.90;;
15102;SDS011;7652;53.584;9.998;2022-12-05T01:28:54;12.00;;;8.23;;
15102;SDS011;7652;53.584;9.998;2022-12-05T01:31:57;12.23;;;7.97;;
15102;SDS011;7652;53.584;9.998;2022-12-05T01:35:02;13.70;;;7.83;;
15102;SDS011;7652;53.584;9.998;2022-12-05T01:38:05;11.53;;;7.73;;
15102;SDS011;7652;53.584;9.998;2022-12-05T01:41:10;12.53;;;7.40;;
15102;SDS011;7652;53.584;9.998;2022-12-05T01:47:52;10.73;;;7.47;;
15102;SDS011;7652;53.584;9.998;2022-12-05T01:50:57;11.57;;;7.03;;
15102;SDS011;7652;53.584;9.998;2022-12-05T01:54:02;10.03;;;7.37;;
15102;SDS011;7652;53.584;9.998;2022-12-05T01:57:07;12.87;;;7.77;;
15102;SDS011;7652;53.584;9.998;2022-12-05T02:00:14;12.47;;;7.87;;
15102;SDS011;7652;53.584;9.998;2022-12-05T02:03:19;11.10;;;7.63;;
15102;SDS011;7652;53.584;9.998;2022-12-05T02:06:24;13.13;;;7.70;;
15102;SDS011;7652;53.584;9.998;2022-12-05T02:09:28;12.73;;;7.90;;
15102;SDS011;7652;53.584;9.998;2022-12-05T02:12:31;11.03;;;7.30;;
15102;SDS011;7652;53.584;9.998;2022-12-05T02:15:36;10.50;;;7.60;;
15102;SDS011;7652;53.584;9.998;2022-12-05T02:18:46;11.17;;;7.37;;
15102;SDS011;7652;53.584;9.998;2022-12-05T02:33:07;13.00;;;7.87;;
15102;SDS011;7652;53.584;9.998;2022-12-05T02:36:20;14.10;;;8.73;;
15102;SDS011;7652;53.584;9.998;2022-12-05T02:39:31;13.70;;;8.33;;
15102;SDS011;7652;53.584;9.998;2022-12-05T02:42:42;11.33;;;7.93;;
15102;SDS011;7652;53.584;9.998;2022-12-05T02:45:52;13.53;;;8.80;;
15102;SDS011;7652;53.584;9.998;2022-12-05T02:49:01;15.30;;;9.73;;
15102;SDS011;7652;53.584;9.998;2022-12-05T02:52:10;14.37;;;9.63;;
15102;SDS011;7652;53.584;9.998;2022-12-05T02:55:15;15.53;;;9.53;;
15102;SDS011;7652;53.584;9.998;2022-12-05T02:58:22;13.30;;;8.53;;
15102;SDS011;7652;53.584;9.998;2022-12-05T03:01:30;15.10;;;9.20;;
15102;SDS011;7652;53.584;9.998;2022-12-05T03:04:34;14.47;;;8.80;;
15102;SDS011;7652;53.584;9.998;2022-12-05T03:07:37;16.67;;;9.87;;
15102;SDS011;7652;53.584;9.998;2022-12-05T03:10:45;16.20;;;9.30;;
15102;SDS011;7652;53.584;9.998;2022-12-05T03:13:51;18.13;;;9.43;;
15102;SDS011;7652;53.584;9.998;2022-12-05T03:16:58;14.47;;;8.97;;
15102;SDS011;7652;53.584;9.998;2022-12-05T03:20:04;14.10;;;8.60;;
15102;SDS011;7652;53.584;9.998;2022-12-05T03:23:14;12.83;;;8.37;;
15102;SDS011;7652;53.584;9.998;2022-12-05T03:26:23;16.53;;;9.33;;
15102;SDS011;7652;53.584;9.998;2022-12-05T03:29:38;15.67;;;8.90;;
15102;SDS011;7652;53.584;9.998;2022-12-05T03:32:48;14.27;;;9.03;;
15102;SDS011;7652;53.584;9.998;2022-12-05T03:35:58;11.93;;;8.73;;
15102;SDS011;7652;53.584;9.998;2022-12-05T03:39:08;15.73;;;9.40;;
15102;SDS011;7652;53.584;9.998;2022-12-05T03:42:15;15.37;;;9.90;;
15102;SDS011;7652;53.584;9.998;2022-12-05T03:45:22;15.23;;;9.23;;
15102;SDS011;7652;53.584;9.998;2022-12-05T03:48:33;14.10;;;9.17;;
15102;SDS011;7652;53.584;9.998;2022-12-05T03:51:41;14.33;;;8.73;;
15102;SDS011;7652;53.584;9.998;2022-12-05T03:54:52;15.37;;;9.20;;
15102;SDS011;7652;53.584;9.998;2022-12-05T03:57:58;14.50;;;9.33;;
15102;SDS011;7652;53.584;9.998;2022-12-05T04:01:04;18.30;;;9.50;;
15102;SDS011;7652;53.584;9.998;2022-12-05T04:04:12;15.50;;;9.67;;
15102;SDS011;7652;53.584;9.998;2022-12-05T04:07:18;18.33;;;10.90;;
15102;SDS011;7652;53.584;9.998;2022-12-05T04:10:24;18.33;;;9.33;;
15102;SDS011;7652;53.584;9.998;2022-12-05T04:13:31;18.57;;;10.27;;
15102;SDS011;7652;53.584;9.998;2022-12-05T04:16:38;15.03;;;10.10;;
15102;SDS011;7652;53.584;9.998;2022-12-05T04:20:04;17.60;;;11.10;;
15102;SDS011;7652;53.584;9.998;2022-12-05T04:23:29;15.77;;;10.10;;
15102;SDS011;7652;53.584;9.998;2022-12-05T04:26:32;15.33;;;10.37;;
15102;SDS011;7652;53.584;9.998;2022-12-05T04:29:47;17.07;;;10.37;;
15102;SDS011;7652;53.584;9.998;2022-12-05T04:32:59;17.73;;;10.20;;
15102;SDS011;7652;53.584;9.998;2022-12-05T04:36:08;17.93;;;10.80;;
15102;SDS011;7652;53.584;9.998;2022-12-05T04:39:15;20.63;;;11.50;;
15102;SDS011;7652;53.584;9.998;2022-12-05T04:42:24;20.57;;;10.30;;
15102;SDS011;7652;53.584;9.998;2022-12-05T04:45:30;16.97;;;10.10;;
15102;SDS011;7652;53.584;9.998;2022-12-05T04:48:36;18.80;;;11.17;;
15102;SDS011;7652;53.584;9.998;2022-12-05T04:51:42;18.93;;;10.57;;
15102;SDS011;7652;53.584;9.998;2022-12-05T04:54:49;17.83;;;10.50;;
15102;SDS011;7652;53.584;9.998;2022-12-05T04:57:58;19.67;;;11.27;;
15102;SDS011;7652;53.584;9.998;2022-12-05T05:01:08;19.43;;;10.97;;
15102;SDS011;7652;53.584;9.998;2022-12-05T05:04:16;16.73;;;9.83;;
15102;SDS011;7652;53.584;9.998;2022-12-05T05:07:23;19.27;;;10.07;;
15102;SDS011;7652;53.584;9.998;2022-12-05T05:10:30;17.73;;;9.47;;
15102;SDS011;7652;53.584;9.998;2022-12-05T05:13:38;16.50;;;9.77;;
15102;SDS011;7652;53.584;9.998;2022-12-05T05:16:42;16.57;;;9.17;;
15102;SDS011;7652;53.584;9.998;2022-12-05T05:19:45;18.13;;;10.13;;
15102;SDS011;7652;53.584;9.998;2022-12-05T05:22:50;18.10;;;9.87;;
15102;SDS011;7652;53.584;9.998;2022-12-05T05:25:54;16.27;;;9.27;;
15102;SDS011;7652;53.584;9.998;2022-12-05T05:28:58;17.73;;;10.20;;
15102;SDS011;7652;53.584;9.998;2022-12-05T05:32:00;16.10;;;9.50;;
15102;SDS011;7652;53.584;9.998;2022-12-05T05:35:04;19.20;;;10.50;;
15102;SDS011;7652;53.584;9.998;2022-12-05T05:38:09;19.63;;;10.57;;
15102;SDS011;7652;53.584;9.998;2022-12-05T05:41:12;21.23;;;11.10;;
15102;SDS011;7652;53.584;9.998;2022-12-05T05:44:16;21.30;;;11.20;;
15102;SDS011;7652;53.584;9.998;2022-12-05T05:47:19;23.03;;;11.30;;
15102;SDS011;7652;53.584;9.998;2022-12-05T05:50:22;27.13;;;11.93;;
15102;SDS011;7652;53.584;9.998;2022-12-05T05:53:27;21.37;;;10.87;;
15102;SDS011;7652;53.584;9.998;2022-12-05T05:56:30;25.73;;;12.03;;
15102;SDS011;7652;53.584;9.998;2022-12-05T05:59:33;22.23;;;11.43;;
15102;SDS011;7652;53.584;9.998;2022-12-05T06:02:36;24.13;;;11.47;;
15102;SDS011;7652;53.584;9.998;2022-12-05T06:05:39;24.80;;;11.77;;
15102;SDS011;7652;53.584;9.998;2022-12-05T06:08:44;27.30;;;12.50;;
15102;SDS011;7652;53.584;9.998;2022-12-05T06:11:47;26.47;;;12.80;;
15102;SDS011;7652;53.584;9.998;2022-12-05T06:14:50;24.57;;;11.57;;
15102;SDS011;7652;53.584;9.998;2022-12-05T06:17:55;28.27;;;12.40;;
15102;SDS011;7652;53.584;9.998;2022-12-05T06:20:58;25.17;;;11.80;;
15102;SDS011;7652;53.584;9.998;2022-12-05T06:24:02;32.40;;;13.30;;
15102;SDS011;7652;53.584;9.998;2022-12-05T06:27:06;25.37;;;12.60;;
15102;SDS011;7652;53.584;9.998;2022-12-05T06:30:09;30.60;;;14.17;;
15102;SDS011;7652;53.584;9.998;2022-12-05T06:33:13;31.50;;;12.53;;
15102;SDS011;7652;53.584;9.998;2022-12-05T06:36:17;29.37;;;13.20;;
15102;SDS011;7652;53.584;9.998;2022-12-05T06:39:23;28.97;;;12.90;;
15102;SDS011;7652;53.584;9.998;2022-12-05T06:42:26;28.47;;;11.80;;
15102;SDS011;7652;53.584;9.998;2022-12-05T06:45:29;29.07;;;12.73;;
15102;SDS011;7652;53.584;9.998;2022-12-05T06:48:32;32.77;;;13.37;;
15102;SDS011;7652;53.584;9.998;2022-12-05T06:51:35;31.37;;;13.37;;
15102;SDS011;7652;53.584;9.998;2022-12-05T06:54:40;31.83;;;13.87;;
15102;SDS011;7652;53.584;9.998;2022-12-05T06:57:43;28.93;;;12.90;;
15102;SDS011;7652;53.584;9.998;2022-12-05T07:00:46;29.80;;;11.23;;
15102;SDS011;7652;53.584;9.998;2022-12-05T07:04:08;31.73;;;13.00;;
15102;SDS011;7652;53.584;9.998;2022-12-05T07:07:13;28.60;;;12.03;;
15102;SDS011;7652;53.584;9.998;2022-12-05T07:10:18;26.23;;;12.17;;
15102;SDS011;7652;53.584;9.998;2022-12-05T07:13:21;26.27;;;11.60;;
15102;SDS011;7652;53.584;9.998;2022-12-05T07:16:24;34.03;;;14.00;;
15102;SDS011;7652;53.584;9.998;2022-12-05T07:19:27;24.10;;;12.10;;
15102;SDS011;7652;53.584;9.998;2022-12-05T07:22:30;31.07;;;14.83;;
15102;SDS011;7652;53.584;9.998;2022-12-05T07:25:34;36.20;;;14.50;;
15102;SDS011;7652;53.584;9.998;2022-12-05T07:28:41;34.10;;;14.67;;
15102;SDS011;7652;53.584;9.998;2022-12-05T07:31:44;35.97;;;15.23;;
15102;SDS011;7652;53.584;9.998;2022-12-05T07:34:47;36.97;;;15.67;;
15102;SDS011;7652;53.584;9.998;2022-12-05T07:37:55;35.13;;;15.33;;
15102;SDS011;7652;53.584;9.998;2022-12-05T07:41:02;33.80;;;14.80;;
15102;SDS011;7652;53.584;9.998;2022-12-05T07:44:13;32.13;;;13.13;;
15102;SDS011;7652;53.584;9.998;2022-12-05T07:47:16;30.43;;;14.00;;
15102;SDS011;7652;53.584;9.998;2022-12-05T07:50:19;26.63;;;11.47;;
15102;SDS011;7652;53.584;9.998;2022-12-05T07:53:22;25.80;;;11.67;;
15102;SDS011;7652;53.584;9.998;2022-12-05T07:56:26;23.23;;;10.93;;
15102;SDS011;7652;53.584;9.998;2022-12-05T07:59:29;24.23;;;11.50;;
15102;SDS011;7652;53.584;9.998;2022-12-05T08:02:32;25.80;;;11.73;;
15102;SDS011;7652;53.584;9.998;2022-12-05T08:05:41;26.63;;;12.37;;
15102;SDS011;7652;53.584;9.998;2022-12-05T08:08:44;28.00;;;13.00;;
15102;SDS011;7652;53.584;9.998;2022-12-05T08:11:51;29.77;;;12.77;;
15102;SDS011;7652;53.584;9.998;2022-12-05T08:14:54;23.77;;;10.97;;
15102;SDS011;7652;53.584;9.998;2022-12-05T08:17:57;22.47;;;11.67;;
15102;SDS011;7652;53.584;9.998;2022-12-05T08:21:01;26.70;;;11.67;;
15102;SDS011;7652;53.584;9.998;2022-12-05T08:24:05;28.23;;;12.33;;
15102;SDS011;7652;53.584;9.998;2022-12-05T08:27:10;19.70;;;10.83;;
15102;SDS011;7652;53.584;9.998;2022-12-05T08:30:13;26.20;;;12.17;;
15102;SDS011;7652;53.584;9.998;2022-12-05T08:33:16;28.80;;;12.23;;
15102;SDS011;7652;53.584;9.998;2022-12-05T08:36:19;24.73;;;11.43;;
15102;SDS011;7652;53.584;9.998;2022-12-05T08:39:22;29.53;;;12.13;;
15102;SDS011;7652;53.584;9.998;2022-12-05T08:42:28;31.60;;;12.70;;
15102;SDS011;7652;53.584;9.998;2022-12-05T08:45:31;26.63;;;12.47;;
15102;SDS011;7652;53.584;9.998;2022-12-05T08:48:34;24.80;;;11.27;;
15102;SDS011;7652;53.584;9.998;2022-12-05T08:51:37;26.53;;;12.73;;
15102;SDS011;7652;53.584;9.998;2022-12-05T08:54:41;28.60;;;11.17;;
15102;SDS011;7652;53.584;9.998;2022-12-05T08:57:46;29.93;;;11.57;;
15102;SDS011;7652;53.584;9.998;2022-12-05T09:00:49;25.67;;;11.70;;
15102;SDS011;7652;53.584;9.998;2022-12-05T09:03:52;26.23;;;10.83;;
15102;SDS011;7652;53.584;9.998;2022-12-05T09:06:55;27.50;;;12.13;;
15102;SDS011;7652;53.584;9.998;2022-12-05T09:09:58;23.83;;;11.27;;
15102;SDS011;7652;53.584;9.998;2022-12-05T09:13:02;28.40;;;11.47;;
15102;SDS011;7652;53.584;9.998;2022-12-05T09:16:06;30.30;;;11.90;;
15102;SDS011;7652;53.584;9.998;2022-12-05T09:19:11;28.57;;;11.73;;
15102;SDS011;7652;53.584;9.998;2022-12-05T09:22:15;30.60;;;12.33;;
15102;SDS011;7652;53.584;9.998;2022-12-05T09:25:19;24.80;;;11.60;;
15102;SDS011;7652;53.584;9.998;2022-12-05T09:28:24;22.80;;;10.43;;
15102;SDS011;7652;53.584;9.998;2022-12-05T09:31:27;24.27;;;10.30;;
15102;SDS011;7652;53.584;9.998;2022-12-05T09:34:31;21.33;;;9.80;;
15102;SDS011;7652;53.584;9.998;2022-12-05T09:37:35;25.33;;;10.37;;
15102;SDS011;7652;53.584;9.998;2022-12-05T09:40:40;24.23;;;10.80;;
15102;SDS011;7652;53.584;9.998;2022-12-05T09:43:47;19.63;;;9.53;;
15102;SDS011;7652;53.584;9.998;2022-12-05T09:46:55;27.07;;;9.63;;
15102;SDS011;7652;53.584;9.998;2022-12-05T09:50:05;25.53;;;10.77;;
15102;SDS011;7652;53.584;9.998;2022-12-05T09:53:20;20.60;;;9.47;;
15102;SDS011;7652;53.584;9.998;2022-12-05T09:56:30;21.67;;;9.37;;
15102;SDS011;7652;53.584;9.998;2022-12-05T09:59:35;19.60;;;9.30;;
15102;SDS011;7652;53.584;9.998;2022-12-05T10:02:40;17.33;;;8.33;;
15102;SDS011;7652;53.584;9.998;2022-12-05T10:05:53;19.87;;;8.93;;
15102;SDS011;7652;53.584;9.998;2022-12-05T10:09:07;17.33;;;8.87;;
15102;SDS011;7652;53.584;9.998;2022-12-05T10:12:42;21.27;;;10.17;;
15102;SDS011;7652;53.584;9.998;2022-12-05T10:15:57;19.13;;;9.00;;
15102;SDS011;7652;53.584;9.998;2022-12-05T10:19:05;18.90;;;9.13;;
15102;SDS011;7652;53.584;9.998;2022-12-05T10:22:13;24.50;;;10.27;;
15102;SDS011;7652;53.584;9.998;2022-12-05T10:25:21;20.77;;;9.57;;
15102;SDS011;7652;53.584;9.998;2022-12-05T10:28:27;19.30;;;8.33;;
15102;SDS011;7652;53.584;9.998;2022-12-05T10:31:35;18.33;;;8.70;;
15102;SDS011;7652;53.584;9.998;2022-12-05T10:34:40;20.63;;;10.10;;
15102;SDS011;7652;53.584;9.998;2022-12-05T10:37:46;18.23;;;9.00;;
15102;SDS011;7652;53.584;9.998;2022-12-05T10:40:51;22.60;;;10.30;;
15102;SDS011;7652;53.584;9.998;2022-12-05T10:43:58;18.73;;;8.63;;
15102;SDS011;7652;53.584;9.998;2022-12-05T10:47:02;21.00;;;9.27;;
15102;SDS011;7652;53.584;9.998;2022-12-05T10:50:13;20.77;;;9.63;;
15102;SDS011;7652;53.584;9.998;2022-12-05T10:53:23;22.00;;;9.67;;
15102;SDS011;7652;53.584;9.998;2022-12-05T10:56:34;21.43;;;9.37;;
15102;SDS011;7652;53.584;9.998;2022-12-05T10:59:43;18.53;;;8.47;;
15102;SDS011;7652;53.584;9.998;2022-12-05T11:02:50;16.70;;;9.10;;
15102;SDS011;7652;53.584;9.998;2022-12-05T11:05:54;21.37;;;9.53;;
15102;SDS011;7652;53.584;9.998;2022-12-05T11:08:58;20.90;;;10.47;;
15102;SDS011;7652;53.584;9.998;2022-12-05T11:12:14;17.70;;;9.00;;
15102;SDS011;7652;53.584;9.998;2022-12-05T11:15:19;18.00;;;9.07;;
15102;SDS011;7652;53.584;9.998;2022-12-05T11:18:28;17.67;;;9.03;;
15102;SDS011;7652;53.584;9.998;2022-12-05T11:21:34;22.07;;;9.63;;
15102;SDS011;7652;53.584;9.998;2022-12-05T11:24:43;19.97;;;8.77;;
15102;SDS011;7652;53.584;9.998;2022-12-05T11:27:46;17.07;;;8.40;;
15102;SDS011;7652;53.584;9.998;2022-12-05T11:30:54;20.13;;;9.57;;
15102;SDS011;7652;53.584;9.998;2022-12-05T11:34:15;19.83;;;8.37;;
15102;SDS011;7652;53.584;9.998;2022-12-05T11:37:23;18.63;;;9.17;;
15102;SDS011;7652;53.584;9.998;2022-12-05T11:40:32;16.90;;;9.53;;
15102;SDS011;7652;53.584;9.998;2022-12-05T11:43:43;16.20;;;9.27;;
15102;SDS011;7652;53.584;9.998;2022-12-05T11:46:56;17.30;;;8.70;;
15102;SDS011;7652;53.584;9.998;2022-12-05T11:50:16;15.83;;;7.70;;
15102;SDS011;7652;53.584;9.998;2022-12-05T11:53:33;14.70;;;8.23;;
15102;SDS011;7652;53.584;9.998;2022-12-05T11:56:57;15.33;;;7.43;;
15102;SDS011;7652;53.584;9.998;2022-12-05T12:00:04;17.13;;;8.20;;
15102;SDS011;7652;53.584;9.998;2022-12-05T12:03:27;16.13;;;8.10;;
15102;SDS011;7652;53.584;9.998;2022-12-05T12:06:55;14.37;;;8.23;;
15102;SDS011;7652;53.584;9.998;2022-12-05T12:10:12;12.90;;;7.70;;
15102;SDS011;7652;53.584;9.998;2022-12-05T12:13:26;17.87;;;9.17;;
15102;SDS011;7652;53.584;9.998;2022-12-05T12:16:37;16.50;;;8.90;;
15102;SDS011;7652;53.584;9.998;2022-12-05T12:19:51;17.50;;;8.23;;
15102;SDS011;7652;53.584;9.998;2022-12-05T12:23:31;19.13;;;9.23;;
15102;SDS011;7652;53.584;9.998;2022-12-05T12:26:46;18.10;;;9.30;;
15102;SDS011;7652;53.584;9.998;2022-12-05T12:29:59;19.60;;;8.63;;
15102;SDS011;7652;53.584;9.998;2022-12-05T12:33:09;15.90;;;8.67;;
15102;SDS011;7652;53.584;9.998;2022-12-05T12:36:26;14.80;;;7.80;;
15102;SDS011;7652;53.584;9.998;2022-12-05T12:39:39;15.73;;;8.67;;
15102;SDS011;7652;53.584;9.998;2022-12-05T12:42:53;16.27;;;8.53;;
15102;SDS011;7652;53.584;9.998;2022-12-05T12:46:08;14.60;;;8.23;;
15102;SDS011;7652;53.584;9.998;2022-12-05T12:56:21;16.37;;;8.80;;
15102;SDS011;7652;53.584;9.998;2022-12-05T12:59:44;13.27;;;8.57;;
15102;SDS011;7652;53.584;9.998;2022-12-05T13:02:56;15.87;;;7.80;;
15102;SDS011;7652;53.584;9.998;2022-12-05T13:06:06;12.77;;;7.87;;
15102;SDS011;7652;53.584;9.998;2022-12-05T13:09:13;16.57;;;8.07;;
15102;SDS011;7652;53.584;9.998;2022-12-05T13:12:25;14.53;;;7.97;;
15102;SDS011;7652;53.584;9.998;2022-12-05T13:15:32;11.83;;;7.60;;
15102;SDS011;7652;53.584;9.998;2022-12-05T13:18:37;15.27;;;8.07;;
15102;SDS011;7652;53.584;9.998;2022-12-05T13:21:40;16.47;;;9.00;;
15102;SDS011;7652;53.584;9.998;2022-12-05T13:24:44;13.97;;;8.13;;
15102;SDS011;7652;53.584;9.998;2022-12-05T13:27:54;12.17;;;7.70;;
15102;SDS011;7652;53.584;9.998;2022-12-05T13:31:00;12.83;;;7.77;;
15102;SDS011;7652;53.584;9.998;2022-12-05T13:34:05;10.97;;;6.80;;
15102;SDS011;7652;53.584;9.998;2022-12-05T13:37:29;12.87;;;7.93;;
15102;SDS011;7652;53.584;9.998;2022-12-05T13:40:51;14.30;;;7.73;;
15102;SDS011;7652;53.584;9.998;2022-12-05T13:44:14;13.77;;;7.97;;
15102;SDS011;7652;53.584;9.998;2022-12-05T13:47:27;13.40;;;7.67;;
15102;SDS011;7652;53.584;9.998;2022-12-05T13:50:34;11.87;;;7.27;;
15102;SDS011;7652;53.584;9.998;2022-12-05T13:53:44;13.53;;;7.70;;
15102;SDS011;7652;53.584;9.998;2022-12-05T13:56:51;12.87;;;7.67;;
15102;SDS011;7652;53.584;9.998;2022-12-05T14:00:00;11.07;;;6.43;;
15102;SDS011;7652;53.584;9.998;2022-12-05T14:06:57;10.47;;;6.50;;
15102;SDS011;7652;53.584;9.998;2022-12-05T14:10:00;12.13;;;6.63;;
15102;SDS011;7652;53.584;9.998;2022-12-05T14:13:36;11.57;;;7.23;;
15102;SDS011;7652;53.584;9.998;2022-12-05T14:16:43;11.60;;;6.53;;
15102;SDS011;7652;53.584;9.998;2022-12-05T14:19:52;11.10;;;6.30;;
15102;SDS011;7652;53.584;9.998;2022-12-05T14:23:07;11.90;;;6.63;;
15102;SDS011;7652;53.584;9.998;2022-12-05T14:26:21;10.90;;;6.43;;
15102;SDS011;7652;53.584;9.998;2022-12-05T14:29:36;12.77;;;7.67;;
15102;SDS011;7652;53.584;9.998;2022-12-05T14:32:44;10.67;;;6.47;;
15102;SDS011;7652;53.584;9.998;2022-12-05T14:35:48;10.10;;;6.37;;
15102;SDS011;7652;53.584;9.998;2022-12-05T14:38:54;10.03;;;6.60;;
15102;SDS011;7652;53.584;9.998;2022-12-05T14:41:57;10.60;;;6.80;;
15102;SDS011;7652;53.584;9.998;2022-12-05T14:45:15;9.60;;;5.97;;
15102;SDS011;7652;53.584;9.998;2022-12-05T14:48:28;8.07;;;4.67;;
15102;SDS011;7652;53.584;9.998;2022-12-05T14:51:43;12.30;;;5.30;;
15102;SDS011;7652;53.584;9.998;2022-12-05T14:54:59;9.07;;;5.57;;
15102;SDS011;7652;53.584;9.998;2022-12-05T14:58:08;7.30;;;5.70;;
15102;SDS011;7652;53.584;9.998;2022-12-05T15:01:18;9.40;;;5.87;;
15102;SDS011;7652;53.584;9.998;2022-12-05T15:04:28;10.37;;;5.93;;
15102;SDS011;7652;53.584;9.998;2022-12-05T15:07:37;9.87;;;6.27;;
15102;SDS011;7652;53.584;9.998;2022-12-05T15:10:41;10.23;;;6.03;;
15102;SDS011;7652;53.584;9.998;2022-12-05T15:13:45;9.53;;;5.97;;
15102;SDS011;7652;53.584;9.998;2022-12-05T15:16:49;9.10;;;5.30;;
15102;SDS011;7652;53.584;9.998;2022-12-05T15:19:58;9.03;;;5.73;;
15102;SDS011;7652;53.584;9.998;2022-12-05T15:26:42;9.77;;;5.20;;
15102;SDS011;7652;53.584;9.998;2022-12-05T15:29:52;9.43;;;5.10;;
15102;SDS011;7652;53.584;9.998;2022-12-05T15:32:56;7.03;;;4.80;;
15102;SDS011;7652;53.584;9.998;2022-12-05T15:36:01;8.20;;;5.47;;
15102;SDS011;7652;53.584;9.998;2022-12-05T15:39:13;7.00;;;5.33;;
15102;SDS011;7652;53.584;9.998;2022-12-05T15:42:20;8.63;;;5.37;;
15102;SDS011;7652;53.584;9.998;2022-12-05T15:45:30;6.13;;;4.50;;
15102;SDS011;7652;53.584;9.998;2022-12-05T15:48:33;7.07;;;5.17;;
15102;SDS011;7652;53.584;9.998;2022-12-05T15:51:38;8.03;;;4.70;;
15102;SDS011;7652;53.584;9.998;2022-12-05T15:54:41;6.80;;;4.80;;
15102;SDS011;7652;53.584;9.998;2022-12-05T15:57:46;8.57;;;4.63;;
15102;SDS011;7652;53.584;9.998;2022-12-05T16:00:54;7.27;;;4.80;;
15102;SDS011;7652;53.584;9.998;2022-12-05T16:04:02;7.60;;;5.67;;
15102;SDS011;7652;53.584;9.998;2022-12-05T16:07:11;7.27;;;4.80;;
15102;SDS011;7652;53.584;9.998;2022-12-05T16:10:16;9.47;;;5.90;;
15102;SDS011;7652;53.584;9.998;2022-12-05T16:13:26;8.30;;;5.77;;
15102;SDS011;7652;53.584;9.998;2022-12-05T16:16:30;6.57;;;4.80;;
15102;SDS011;7652;53.584;9.998;2022-12-05T16:19:36;8.57;;;5.40;;
15102;SDS011;7652;53.584;9.998;2022-12-05T16:22:43;8.83;;;4.80;;
15102;SDS011;7652;53.584;9.998;2022-12-05T16:25:48;7.33;;;5.23;;
15102;SDS011;7652;53.584;9.998;2022-12-05T16:28:55;10.93;;;5.97;;
15102;SDS011;7652;53.584;9.998;2022-12-05T16:32:00;9.10;;;5.97;;
15102;SDS011;7652;53.584;9.998;2022-12-05T16:38:34;9.53;;;5.97;;
15102;SDS011;7652;53.584;9.998;2022-12-05T16:41:38;9.53;;;5.73;;
15102;SDS011;7652;53.584;9.998;2022-12-05T16:48:08;8.70;;;5.87;;
15102;SDS011;7652;53.584;9.998;2022-12-05T16:51:17;7.03;;;4.93;;
15102;SDS011;7652;53.584;9.998;2022-12-05T16:54:28;8.07;;;4.97;;
15102;SDS011;7652;53.584;9.998;2022-12-05T16:57:31;6.60;;;4.63;;
15102;SDS011;7652;53.584;9.998;2022-12-05T17:00:34;7.00;;;4.60;;
15102;SDS011;7652;53.584;9.998;2022-12-05T17:03:37;7.90;;;5.07;;
15102;SDS011;7652;53.584;9.998;2022-12-05T17:06:40;7.63;;;5.17;;
15102;SDS011;7652;53.584;9.998;2022-12-05T17:09:45;5.03;;;4.53;;
15102;SDS011;7652;53.584;9.998;2022-12-05T17:12:48;9.87;;;5.13;;
15102;SDS011;7652;53.584;9.998;2022-12-05T17:15:51;8.03;;;5.27;;
15102;SDS011;7652;53.584;9.998;2022-12-05T17:18:54;9.97;;;5.30;;
15102;SDS011;7652;53.584;9.998;2022-12-05T17:21:57;7.83;;;5.50;;
15102;SDS011;7652;53.584;9.998;2022-12-05T17:25:03;8.73;;;4.93;;
15102;SDS011;7652;53.584;9.998;2022-12-05T17:28:18;9.73;;;5.60;;
15102;SDS011;7652;53.584;9.998;2022-12-05T17:31:22;9.43;;;5.13;;
15102;SDS011;7652;53.584;9.998;2022-12-05T17:34:26;7.47;;;4.83;;
15102;SDS011;7652;53.584;9.998;2022-12-05T17:37:30;8.13;;;5.13;;
15102;SDS011;7652;53.584;9.998;2022-12-05T17:40:35;8.00;;;5.10;;
15102;SDS011;7652;53.584;9.998;2022-12-05T17:43:39;8.63;;;5.57;;
15102;SDS011;7652;53.584;9.998;2022-12-05T17:46:42;8.53;;;5.30;;
15102;SDS011;7652;53.584;9.998;2022-12-05T17:49:45;9.10;;;4.87;;
15102;SDS011;7652;53.584;9.998;2022-12-05T17:52:49;11.33;;;5.53;;
15102;SDS011;7652;53.584;9.998;2022-12-05T17:55:54;9.43;;;5.60;;
15102;SDS011;7652;53.584;9.998;2022-12-05T17:58:57;10.30;;;6.10;;
15102;SDS011;7652;53.584;9.998;2022-12-05T18:02:08;7.73;;;5.40;;
15102;SDS011;7652;53.584;9.998;2022-12-05T18:05:12;9.90;;;6.37;;
15102;SDS011;7652;53.584;9.998;2022-12-05T18:08:16;10.10;;;6.30;;
15102;SDS011;7652;53.584;9.998;2022-12-05T18:11:20;11.40;;;6.47;;
15102;SDS011;7652;53.584;9.998;2022-12-05T18:14:23;8.73;;;6.27;;
15102;SDS011;7652;53.584;9.998;2022-12-05T18:17:28;10.83;;;6.60;;
15102;SDS011;7652;53.584;9.998;2022-12-05T18:20:32;8.77;;;6.07;;
15102;SDS011;7652;53.584;9.998;2022-12-05T18:23:36;8.23;;;5.73;;
15102;SDS011;7652;53.584;9.998;2022-12-05T18:26:41;9.47;;;6.30;;
15102;SDS011;7652;53.584;9.998;2022-12-05T18:29:45;12.47;;;5.87;;
15102;SDS011;7652;53.584;9.998;2022-12-05T18:32:49;8.43;;;5.50;;
15102;SDS011;7652;53.584;9.998;2022-12-05T18:35:52;8.20;;;6.20;;
15102;SDS011;7652;53.584;9.998;2022-12-05T18:38:55;9.83;;;6.03;;
15102;SDS011;7652;53.584;9.998;2022-12-05T18:42:00;8.50;;;5.87;;
15102;SDS011;7652;53.584;9.998;2022-12-05T18:45:04;11.17;;;6.47;;
15102;SDS011;7652;53.584;9.998;2022-12-05T18:48:08;8.53;;;5.97;;
15102;SDS011;7652;53.584;9.998;2022-12-05T18:51:31;9.53;;;6.23;;
15102;SDS011;7652;53.584;9.998;2022-12-05T18:54:34;9.03;;;5.47;;
15102;SDS011;7652;53.584;9.998;2022-12-05T18:57:38;8.70;;;5.83;;
15102;SDS011;7652;53.584;9.998;2022-12-05T19:00:41;10.50;;;6.00;;
15102;SDS011;7652;53.584;9.998;2022-12-05T19:03:45;7.37;;;5.47;;
15102;SDS011;7652;53.584;9.998;2022-12-05T19:06:48;9.00;;;5.80;;
15102;SDS011;7652;53.584;9.998;2022-12-05T19:09:53;9.13;;;6.23;;
15102;SDS011;7652;53.584;9.998;2022-12-05T19:12:57;8.73;;;5.73;;
15102;SDS011;7652;53.584;9.998;2022-12-05T19:16:00;7.33;;;5.37;;
15102;SDS011;7652;53.584;9.998;2022-12-05T19:19:05;9.47;;;5.37;;